createdAt,value
2018-11-02T00:00:52.450Z,101122.45
2018-11-02T00:03:21.477Z,101137.52
2018-11-02T00:05:50.757Z,101152.27
2018-11-02T00:08:19.929Z,101166.72
2018-11-02T00:10:49.470Z,101187.79
2018-11-02T00:13:18.678Z,101197.25
2018-11-02T00:15:47.690Z,101192.09
2018-11-02T00:18:16.881Z,101193.17
2018-11-02T00:20:46.238Z,101180.77
2018-11-02T00:23:15.438Z,101176.36
2018-11-02T00:25:44.640Z,101178.97
2018-11-02T00:28:13.609Z,101179.06
2018-11-02T00:30:42.763Z,101164.11
2018-11-02T00:33:11.737Z,101172.42
2018-11-02T00:35:40.706Z,101175.82
2018-11-02T00:38:09.818Z,101174.09
2018-11-02T00:40:38.786Z,101175.77
2018-11-02T00:43:07.807Z,101187.45
2018-11-02T00:45:37.243Z,101180.20
2018-11-02T00:48:06.311Z,101185.58
2018-11-02T00:50:35.326Z,101186.16
2018-11-02T00:53:04.873Z,101185.49
2018-11-02T00:55:33.871Z,101181.37
2018-11-02T00:58:03.106Z,101177.89
2018-11-02T01:00:32.585Z,101182.75
2018-11-02T01:03:01.598Z,101185.97
2018-11-02T01:05:30.595Z,101188.59
2018-11-02T01:07:59.877Z,101183.61
2018-11-02T01:10:28.972Z,101180.02
2018-11-02T01:12:58.240Z,101186.73
2018-11-02T01:15:27.374Z,101188.30
2018-11-02T01:17:56.339Z,101187.08
2018-11-02T01:20:25.503Z,101191.06
2018-11-02T01:22:54.869Z,101185.28
2018-11-02T01:25:23.862Z,101174.33
2018-11-02T01:27:53.083Z,101180.59
2018-11-02T01:30:22.161Z,101191.78
2018-11-02T01:32:51.429Z,101197.23
2018-11-02T01:35:20.489Z,101217.32
2018-11-02T01:37:49.433Z,101226.47
2018-11-02T01:40:18.395Z,101231.13
2018-11-02T01:42:47.461Z,101235.50
2018-11-02T01:45:16.873Z,101236.48
2018-11-02T01:47:45.858Z,101240.50
2018-11-02T01:50:14.871Z,101242.08
2018-11-02T01:52:43.940Z,101233.74
2018-11-02T01:55:13.097Z,101232.56
2018-11-02T01:57:42.113Z,101238.16
2018-11-02T02:00:11.111Z,101239.53
2018-11-02T02:02:40.095Z,101249.14
2018-11-02T02:05:09.080Z,101245.25
2018-11-02T02:07:38.419Z,101248.95
2018-11-02T02:10:07.815Z,101252.98
2018-11-02T02:12:36.885Z,101244.73
2018-11-02T02:15:08.160Z,101239.76
2018-11-02T02:17:37.460Z,101249.81
2018-11-02T02:20:07.532Z,101246.16
2018-11-02T02:22:37.133Z,101243.27
2018-11-02T02:25:07.094Z,101241.91
2018-11-02T02:27:36.826Z,101237.91
2018-11-02T02:30:08.791Z,101239.92
2018-11-02T02:32:38.123Z,101244.86
2018-11-02T02:35:07.616Z,101254.03
2018-11-02T02:37:37.571Z,101256.00
2018-11-02T02:40:07.326Z,101262.40
2018-11-02T02:42:36.619Z,101264.55
2018-11-02T02:45:07.188Z,101273.58
2018-11-02T02:47:36.251Z,101289.09
2018-11-02T02:50:07.675Z,101294.21
2018-11-02T02:52:36.663Z,101293.70
2018-11-02T02:55:06.789Z,101296.70
2018-11-02T02:57:36.111Z,101299.75
2018-11-02T03:00:06.630Z,101293.16
2018-11-02T03:02:35.831Z,101300.70
2018-11-02T03:05:04.870Z,101301.18
2018-11-02T03:07:34.000Z,101296.02
2018-11-02T03:10:03.007Z,101302.91
2018-11-02T03:12:32.018Z,101303.02
2018-11-02T03:15:01.075Z,101302.08
2018-11-02T03:17:30.220Z,101304.75
2018-11-02T03:19:59.184Z,101305.66
2018-11-02T03:22:28.492Z,101311.23
2018-11-02T03:24:57.431Z,101320.29
2018-11-02T03:27:26.424Z,101315.37
2018-11-02T03:29:55.415Z,101320.29
2018-11-02T03:32:24.416Z,101323.88
2018-11-02T03:34:53.404Z,101323.70
2018-11-02T03:37:22.365Z,101322.38
2018-11-02T03:39:51.340Z,101326.33
2018-11-02T03:42:20.313Z,101320.91
2018-11-02T03:44:49.291Z,101319.75
2018-11-02T03:47:18.287Z,101322.33
2018-11-02T03:49:47.294Z,101324.30
2018-11-02T03:52:16.525Z,101337.66
2018-11-02T03:54:45.542Z,101337.47
2018-11-02T03:57:14.534Z,101335.58
2018-11-02T03:59:43.554Z,101333.84
2018-11-02T04:02:12.518Z,101341.86
2018-11-02T04:04:41.511Z,101340.30
2018-11-02T04:07:10.486Z,101339.77
2018-11-02T04:09:39.867Z,101330.88
2018-11-02T04:12:08.773Z,101338.91
2018-11-02T04:14:37.763Z,101332.22
2018-11-02T04:17:07.152Z,101338.05
2018-11-02T04:19:36.143Z,101346.74
2018-11-02T04:22:05.283Z,101346.91
2018-11-02T04:24:34.253Z,101346.31
2018-11-02T04:27:03.220Z,101343.33
2018-11-02T04:29:32.491Z,101349.99
2018-11-02T04:32:01.817Z,101348.37
2018-11-02T04:34:31.183Z,101351.38
2018-11-02T04:37:00.129Z,101358.23
2018-11-02T04:39:29.126Z,101357.77
2018-11-02T04:41:58.302Z,101359.91
2018-11-02T04:44:27.285Z,101361.56
2018-11-02T04:46:56.289Z,101363.74
2018-11-02T04:49:25.267Z,101371.91
2018-11-02T04:51:54.552Z,101378.34
2018-11-02T04:54:23.740Z,101382.85
2018-11-02T04:56:52.711Z,101389.84
2018-11-02T04:59:21.681Z,101389.37
2018-11-02T05:01:50.670Z,101387.40
2018-11-02T05:04:19.656Z,101387.76
2018-11-02T05:06:48.989Z,101400.55
2018-11-02T05:09:17.968Z,101410.06
2018-11-02T05:11:46.974Z,101413.59
2018-11-02T05:14:15.959Z,101410.59
2018-11-02T05:16:45.233Z,101403.13
2018-11-02T05:19:14.467Z,101397.31
2018-11-02T05:21:43.417Z,101401.44
2018-11-02T05:24:12.391Z,101401.12
2018-11-02T05:26:41.490Z,101405.80
2018-11-02T05:29:10.714Z,101415.36
2018-11-02T05:31:39.895Z,101415.63
2018-11-02T05:34:09.055Z,101429.23
2018-11-02T05:36:38.007Z,101436.38
2018-11-02T05:39:11.927Z,101446.09
2018-11-02T05:41:41.114Z,101450.28
2018-11-02T05:44:10.079Z,101457.85
2018-11-02T05:46:39.086Z,101458.77
2018-11-02T05:49:08.090Z,101455.80
2018-11-02T05:51:37.072Z,101453.67
2018-11-02T05:54:06.113Z,101457.75
2018-11-02T05:56:35.041Z,101462.09
2018-11-02T05:59:04.016Z,101468.75
2018-11-02T06:01:33.123Z,101471.46
2018-11-02T06:04:02.321Z,101474.19
2018-11-02T06:06:31.398Z,101484.53
2018-11-02T06:09:00.474Z,101483.90
2018-11-02T06:11:29.704Z,101481.33
2018-11-02T06:13:58.686Z,101479.74
2018-11-02T06:16:27.898Z,101476.48
2018-11-02T06:18:56.925Z,101472.24
2018-11-02T06:21:26.233Z,101480.92
2018-11-02T06:23:55.208Z,101481.81
2018-11-02T06:26:24.198Z,101492.52
2018-11-02T06:28:53.200Z,101493.20
2018-11-02T06:31:22.195Z,101492.67
2018-11-02T06:33:51.188Z,101499.92
2018-11-02T06:36:20.206Z,101502.00
2018-11-02T06:38:49.271Z,101508.55
2018-11-02T06:41:18.229Z,101528.91
2018-11-02T06:43:47.229Z,101522.72
2018-11-02T06:46:16.197Z,101534.05
2018-11-02T06:48:45.182Z,101530.55
2018-11-02T06:51:14.149Z,101534.70
2018-11-02T06:53:43.169Z,101543.93
2018-11-02T06:56:12.151Z,101548.44
2018-11-02T06:58:41.131Z,101556.30
2018-11-02T07:01:10.275Z,101562.95
2018-11-02T07:03:39.278Z,101577.34
2018-11-02T07:06:08.300Z,101578.27
2018-11-02T07:08:37.669Z,101584.22
2018-11-02T07:11:06.656Z,101573.27
2018-11-02T07:13:35.639Z,101570.69
2018-11-02T07:16:04.643Z,101573.41
2018-11-02T07:18:33.667Z,101574.94
2018-11-02T07:21:02.858Z,101580.95
2018-11-02T07:23:31.833Z,101584.88
2018-11-02T07:26:00.829Z,101589.33
2018-11-02T07:28:29.857Z,101593.63
2018-11-02T07:30:58.892Z,101599.50
2018-11-02T07:33:28.458Z,101593.22
2018-11-02T07:35:57.430Z,101592.61
2018-11-02T07:38:26.430Z,101592.98
2018-11-02T07:40:55.405Z,101595.56
2018-11-02T07:43:24.547Z,101610.67
2018-11-02T07:45:53.813Z,101603.48
2018-11-02T07:48:23.160Z,101591.89
2018-11-02T07:50:52.117Z,101610.84
2018-11-02T07:53:21.365Z,101606.65
2018-11-02T07:55:50.346Z,101623.95
2018-11-02T07:58:19.406Z,101623.48
2018-11-02T08:00:48.518Z,101636.59
2018-11-02T08:03:17.500Z,101636.70
2018-11-02T08:05:46.950Z,101636.95
2018-11-02T08:08:15.966Z,101645.80
2018-11-02T08:10:44.946Z,101645.61
2018-11-02T08:13:14.017Z,101659.27
2018-11-02T08:15:43.447Z,101659.46
2018-11-02T08:18:12.676Z,101663.45
2018-11-02T08:20:41.684Z,101655.99
2018-11-02T08:23:10.907Z,101655.34
2018-11-02T08:25:39.915Z,101661.92
2018-11-02T08:28:08.952Z,101669.83
2018-11-02T08:30:37.939Z,101670.59
2018-11-02T08:33:07.143Z,101676.86
2018-11-02T08:35:36.130Z,101676.95
2018-11-02T08:38:05.187Z,101671.08
2018-11-02T08:40:34.326Z,101679.69
2018-11-02T08:43:03.337Z,101682.53
2018-11-02T08:45:32.311Z,101688.09
2018-11-02T08:48:01.556Z,101693.45
2018-11-02T08:50:30.759Z,101696.25
2018-11-02T08:53:00.040Z,101696.34
2018-11-02T08:55:29.032Z,101698.84
2018-11-02T08:57:59.080Z,101693.02
2018-11-02T09:00:28.250Z,101689.70
2018-11-02T09:02:57.232Z,101694.81
2018-11-02T09:05:26.234Z,101698.93
2018-11-02T09:07:55.493Z,101705.55
2018-11-02T09:10:24.482Z,101699.34
2018-11-02T09:12:53.505Z,101702.02
2018-11-02T09:15:22.515Z,101702.02
2018-11-02T09:17:51.495Z,101709.80
2018-11-02T09:20:20.622Z,101716.94
2018-11-02T09:22:49.613Z,101718.90
2018-11-02T09:25:18.599Z,101725.13
2018-11-02T09:27:47.633Z,101725.99
2018-11-02T09:30:17.333Z,101735.84
2018-11-02T09:32:46.395Z,101736.97
2018-11-02T09:35:15.621Z,101749.09
2018-11-02T09:37:44.867Z,101743.75
2018-11-02T09:40:14.132Z,101748.33
2018-11-02T09:42:43.122Z,101756.47
2018-11-02T09:45:13.609Z,101756.20
2018-11-02T09:47:42.917Z,101748.87
2018-11-02T09:50:12.307Z,101756.65
2018-11-02T09:52:41.484Z,101758.58
2018-11-02T09:55:12.641Z,101754.84
2018-11-02T09:57:42.491Z,101755.02
2018-11-02T10:00:12.519Z,101752.40
2018-11-02T10:02:41.719Z,101752.19
2018-11-02T10:05:11.719Z,101742.94
2018-11-02T10:07:41.450Z,101738.50
2018-11-02T10:10:12.052Z,101727.95
2018-11-02T10:12:41.029Z,101739.38
2018-11-02T10:15:13.714Z,101749.22
2018-11-02T10:17:42.724Z,101745.12
2018-11-02T10:20:12.031Z,101749.91
2018-11-02T10:22:41.069Z,101743.27
2018-11-02T10:25:10.780Z,101744.16
2018-11-02T10:27:41.209Z,101749.73
2018-11-02T10:30:12.000Z,101752.64
2018-11-02T10:32:43.054Z,101759.19
2018-11-02T10:35:12.044Z,101757.89
2018-11-02T10:37:41.039Z,101750.11
2018-11-02T10:40:13.333Z,101751.50
2018-11-02T10:42:43.874Z,101751.92
2018-11-02T10:45:13.111Z,101750.21
2018-11-02T10:47:42.178Z,101748.20
2018-11-02T10:50:11.173Z,101757.85
2018-11-02T10:52:40.478Z,101767.95
2018-11-02T10:55:12.709Z,101777.45
2018-11-02T10:57:44.237Z,101787.28
2018-11-02T11:01:16.745Z,101782.30
2018-11-02T11:03:45.697Z,101778.22
2018-11-02T11:06:14.720Z,101792.73
2018-11-02T11:08:44.056Z,101785.31
2018-11-02T11:11:13.125Z,101785.69
2018-11-02T11:13:42.520Z,101784.96
2018-11-02T11:16:11.479Z,101778.55
2018-11-02T11:22:12.984Z,101783.98
2018-11-02T11:24:41.958Z,101779.39
2018-11-02T11:27:10.931Z,101777.61
2018-11-02T11:29:40.229Z,101776.92
2018-11-02T11:32:09.319Z,101780.94
2018-11-02T11:34:38.421Z,101785.47
2018-11-02T11:37:08.260Z,101795.20
2018-11-02T11:39:37.646Z,101805.38
2018-11-02T11:42:06.736Z,101803.05
2018-11-02T11:44:36.318Z,101795.69
2018-11-02T11:47:05.547Z,101790.28
2018-11-02T11:49:34.626Z,101787.83
2018-11-02T11:52:03.620Z,101783.97
2018-11-02T11:54:32.702Z,101800.22
2018-11-02T11:57:01.703Z,101803.15
2018-11-02T11:59:30.934Z,101806.96
2018-11-02T12:02:00.180Z,101810.88
2018-11-02T12:04:29.345Z,101807.37
2018-11-02T12:06:58.323Z,101812.66
2018-11-02T12:09:27.635Z,101820.66
2018-11-02T12:11:56.870Z,101819.81
2018-11-02T12:14:26.188Z,101815.81
2018-11-02T12:16:55.714Z,101808.19
2018-11-02T12:19:25.001Z,101814.53
2018-11-02T12:21:54.128Z,101821.97
2018-11-02T12:24:23.343Z,101818.98
2018-11-02T12:26:52.618Z,101811.12
2018-11-02T12:29:21.662Z,101812.34
2018-11-02T12:31:50.783Z,101806.28
2018-11-02T12:34:20.027Z,101812.86
2018-11-02T12:36:49.072Z,101808.23
2018-11-02T12:39:18.302Z,101811.01
2018-11-02T12:41:47.319Z,101818.77
2018-11-02T12:44:16.706Z,101807.28
2018-11-02T12:46:45.738Z,101813.63
2018-11-02T12:49:15.137Z,101819.95
2018-11-02T12:51:44.080Z,101825.92
2018-11-02T12:54:13.495Z,101829.00
2018-11-02T12:56:42.544Z,101822.58
2018-11-02T12:59:11.847Z,101834.23
2018-11-02T13:01:40.958Z,101834.94
2018-11-02T13:04:10.085Z,101840.10
2018-11-02T13:06:39.057Z,101847.34
2018-11-02T13:09:08.067Z,101846.06
2018-11-02T13:11:37.183Z,101846.66
2018-11-02T13:14:06.170Z,101843.38
2018-11-02T13:16:35.136Z,101853.88
2018-11-02T13:19:04.309Z,101847.53
2018-11-02T13:21:33.289Z,101855.42
2018-11-02T13:24:02.280Z,101853.57
2018-11-02T13:26:31.325Z,101849.36
2018-11-02T13:29:00.367Z,101846.94
2018-11-02T13:31:29.477Z,101855.16
2018-11-02T13:33:58.454Z,101854.20
2018-11-02T13:36:27.659Z,101866.84
2018-11-02T13:38:56.770Z,101858.80
2018-11-02T13:41:25.962Z,101879.36
2018-11-02T13:43:55.194Z,101885.91
2018-11-02T13:46:24.199Z,101886.94
2018-11-02T13:48:53.193Z,101898.84
2018-11-02T13:51:22.153Z,101897.78
2018-11-02T13:53:51.192Z,101895.38
2018-11-02T13:56:20.159Z,101893.19
2018-11-02T13:58:49.158Z,101892.34
2018-11-02T14:01:18.149Z,101892.30
2018-11-02T14:03:47.178Z,101887.83
2018-11-02T14:06:16.151Z,101889.51
2018-11-02T14:08:45.238Z,101876.89
2018-11-02T14:11:14.736Z,101881.55
2018-11-02T14:13:43.820Z,101878.02
2018-11-02T14:16:13.083Z,101881.10
2018-11-02T14:18:42.105Z,101890.06
2018-11-02T14:21:11.293Z,101888.95
2018-11-02T14:23:40.326Z,101893.27
2018-11-02T14:26:09.475Z,101892.86
2018-11-02T14:28:38.894Z,101904.10
2018-11-02T14:31:08.121Z,101906.69
2018-11-02T14:33:37.137Z,101915.66
2018-11-02T14:36:06.123Z,101915.27
2018-11-02T14:38:35.473Z,101921.03
2018-11-02T14:41:04.679Z,101915.71
2018-11-02T14:43:33.747Z,101914.50
2018-11-02T14:46:02.732Z,101915.02
2018-11-02T14:48:31.741Z,101923.80
2018-11-02T14:51:00.886Z,101925.90
2018-11-02T14:53:29.923Z,101923.52
2018-11-02T14:55:58.915Z,101915.89
2018-11-02T14:58:27.903Z,101929.77
2018-11-02T15:00:56.910Z,101939.31
2018-11-02T15:03:25.959Z,101940.95
2018-11-02T15:05:54.938Z,101945.48
2018-11-02T15:08:23.921Z,101946.15
2018-11-02T15:10:52.943Z,101942.98
2018-11-02T15:13:21.944Z,101952.50
2018-11-02T15:15:51.520Z,101953.73
2018-11-02T15:18:20.596Z,101966.34
2018-11-02T15:20:49.587Z,101966.30
2018-11-02T15:23:18.835Z,101967.94
2018-11-02T15:25:48.095Z,101975.11
2018-11-02T15:28:17.157Z,101977.19
2018-11-02T15:30:46.349Z,101971.50
2018-11-02T15:33:15.307Z,101971.75
2018-11-02T15:35:44.407Z,101979.51
2018-11-02T15:38:13.451Z,101980.31
2018-11-02T15:40:42.627Z,101985.56
2018-11-02T15:43:11.772Z,101995.52
2018-11-02T15:45:40.772Z,101998.17
2018-11-02T15:48:09.805Z,102008.69
2018-11-02T15:50:38.912Z,102015.64
2018-11-02T15:53:08.010Z,102021.73
2018-11-02T15:55:36.967Z,102023.06
2018-11-02T15:58:06.279Z,102021.77
2018-11-02T16:00:35.422Z,102020.83
2018-11-02T16:03:04.280Z,102037.12
2018-11-02T16:05:33.357Z,102033.98
2018-11-02T16:08:02.366Z,102041.65
2018-11-02T16:10:31.536Z,102045.03
2018-11-02T16:13:00.568Z,102031.51
2018-11-02T16:15:29.569Z,102025.42
2018-11-02T16:17:58.591Z,102020.98
2018-11-02T16:20:27.712Z,102013.30
2018-11-02T16:22:56.698Z,102014.94
2018-11-02T16:25:25.699Z,102022.11
2018-11-02T16:27:54.697Z,102019.52
2018-11-02T16:30:23.721Z,102023.53
2018-11-02T16:32:52.733Z,102026.27
2018-11-02T16:35:22.055Z,102022.48
2018-11-02T16:37:51.386Z,102021.70
2018-11-02T16:40:20.691Z,102022.24
2018-11-02T16:42:49.857Z,102022.28
2018-11-02T16:45:18.930Z,102028.12
2018-11-02T16:47:48.038Z,102033.73
2018-11-02T16:50:17.270Z,102041.08
2018-11-02T16:52:46.529Z,102058.94
2018-11-02T16:55:15.984Z,102061.14
2018-11-02T16:57:45.164Z,102062.84
2018-11-02T17:00:17.958Z,102069.59
2018-11-02T17:02:48.204Z,102079.20
2018-11-02T17:05:17.701Z,102083.78
2018-11-02T17:07:47.130Z,102100.78
2018-11-02T17:10:16.454Z,102103.17
2018-11-02T17:12:45.919Z,102110.50
2018-11-02T17:15:15.189Z,102109.02
2018-11-02T17:17:44.296Z,102119.58
2018-11-02T17:20:14.704Z,102121.53
2018-11-02T17:22:43.820Z,102117.65
2018-11-02T17:25:13.339Z,102137.02
2018-11-02T17:27:42.496Z,102133.25
2018-11-02T17:30:15.782Z,102130.06
2018-11-02T17:32:45.036Z,102145.56
2018-11-02T17:35:14.084Z,102148.14
2018-11-02T17:37:43.161Z,102146.36
2018-11-02T17:40:13.447Z,102144.00
2018-11-02T17:42:43.277Z,102143.95
2018-11-02T17:45:12.581Z,102150.14
2018-11-02T17:47:42.431Z,102159.36
2018-11-02T17:50:12.985Z,102168.81
2018-11-02T17:52:42.166Z,102173.34
2018-11-02T17:55:11.342Z,102169.35
2018-11-02T17:57:40.394Z,102166.59
2018-11-02T18:00:11.515Z,102175.00
2018-11-02T18:02:40.536Z,102180.69
2018-11-02T18:05:10.716Z,102180.44
2018-11-02T18:07:39.712Z,102187.49
2018-11-02T18:10:11.142Z,102183.34
2018-11-02T18:12:40.419Z,102189.86
2018-11-02T18:15:09.966Z,102190.89
2018-11-02T18:17:39.349Z,102185.50
2018-11-02T18:20:11.904Z,102184.66
2018-11-02T18:22:41.094Z,102188.81
2018-11-02T18:25:10.551Z,102194.24
2018-11-02T18:27:39.843Z,102191.88
2018-11-02T18:30:10.074Z,102195.70
2018-11-02T18:32:39.111Z,102215.12
2018-11-02T18:35:08.606Z,102220.84
2018-11-02T18:37:37.750Z,102218.39
2018-11-02T18:40:09.647Z,102219.63
2018-11-02T18:42:38.839Z,102223.50
2018-11-02T18:45:10.705Z,102225.78
2018-11-02T18:47:43.904Z,102224.73
2018-11-02T18:50:14.055Z,102241.39
2018-11-02T18:52:43.237Z,102249.36
2018-11-02T18:55:12.283Z,102244.45
2018-11-02T18:57:41.328Z,102247.72
2018-11-02T19:00:11.434Z,102250.61
2018-11-02T19:02:40.612Z,102248.77
2018-11-02T19:05:12.720Z,102252.41
2018-11-02T19:07:41.750Z,102251.73
2018-11-02T19:10:11.650Z,102267.36
2018-11-02T19:12:41.238Z,102275.49
2018-11-02T19:15:12.920Z,102279.58
2018-11-02T19:17:42.346Z,102267.36
2018-11-02T19:20:12.161Z,102275.62
2018-11-02T19:22:41.158Z,102276.34
2018-11-02T19:25:11.602Z,102293.61
2018-11-02T19:27:40.740Z,102284.91
2018-11-02T19:30:11.389Z,102288.84
2018-11-02T19:32:40.388Z,102293.32
2018-11-02T19:35:10.491Z,102298.93
2018-11-02T19:37:39.398Z,102301.27
2018-11-02T19:40:10.775Z,102310.34
2018-11-02T19:42:40.063Z,102313.95
2018-11-02T19:45:09.831Z,102318.05
2018-11-02T19:47:44.245Z,102313.77
2018-11-02T19:50:14.563Z,102316.52
2018-11-02T19:52:43.637Z,102327.44
2018-11-02T19:55:13.327Z,102337.17
2018-11-02T19:57:43.794Z,102339.08
2018-11-02T20:00:14.557Z,102343.22
2018-11-02T20:02:44.015Z,102344.50
2018-11-02T20:05:15.159Z,102340.45
2018-11-02T20:07:44.945Z,102345.73
2018-11-02T20:10:14.941Z,102355.55
2018-11-02T20:12:44.484Z,102355.68
2018-11-02T20:15:14.443Z,102349.66
2018-11-02T20:17:43.844Z,102351.23
2018-11-02T20:20:14.111Z,102359.66
2018-11-02T20:22:43.378Z,102348.79
2018-11-02T20:25:13.987Z,102345.28
2018-11-02T20:27:43.310Z,102344.69
2018-11-02T20:30:15.263Z,102349.64
2018-11-02T20:32:44.932Z,102350.80
2018-11-02T20:35:14.507Z,102346.05
2018-11-02T20:37:43.887Z,102339.95
2018-11-02T20:40:16.304Z,102342.37
2018-11-02T20:42:45.901Z,102345.61
2018-11-02T20:45:15.528Z,102355.83
2018-11-02T20:47:48.799Z,102360.06
2018-11-02T20:50:19.559Z,102369.39
2018-11-02T20:52:48.767Z,102365.61
2018-11-02T20:55:18.064Z,102369.78
2018-11-02T20:57:47.139Z,102375.31
2018-11-02T21:00:17.510Z,102381.94
2018-11-02T21:02:46.806Z,102385.08
2018-11-02T21:05:17.210Z,102383.23
2018-11-02T21:07:46.867Z,102375.83
2018-11-02T21:10:17.257Z,102373.53
2018-11-02T21:12:46.388Z,102364.39
2018-11-02T21:15:19.751Z,102368.91
2018-11-02T21:17:49.172Z,102371.73
2018-11-02T21:20:19.464Z,102374.80
2018-11-02T21:22:48.460Z,102381.50
2018-11-02T21:25:17.526Z,102380.78
2018-11-02T21:27:47.492Z,102387.89
2018-11-02T21:30:18.295Z,102399.26
2018-11-02T21:32:48.025Z,102402.12
2018-11-02T21:35:17.541Z,102393.72
2018-11-02T21:37:46.983Z,102397.97
2018-11-02T21:40:17.389Z,102400.90
2018-11-02T21:42:46.583Z,102400.38
2018-11-02T21:45:17.029Z,102408.16
2018-11-02T21:47:46.521Z,102407.38
2018-11-02T21:50:16.536Z,102402.12
2018-11-02T21:52:45.720Z,102409.42
2018-11-02T21:55:15.074Z,102407.03
2018-11-02T21:57:44.183Z,102408.58
2018-11-02T22:00:19.314Z,102399.26
2018-11-02T22:02:49.424Z,102403.91
2018-11-02T22:05:18.740Z,102421.64
2018-11-02T22:07:48.727Z,102421.95
2018-11-02T22:10:18.859Z,102422.20
2018-11-02T22:12:48.101Z,102434.03
2018-11-02T22:15:17.300Z,102443.06
2018-11-02T22:17:46.551Z,102438.17
2018-11-02T22:20:16.222Z,102442.98
2018-11-02T22:22:46.053Z,102442.63
2018-11-02T22:25:15.867Z,102442.98
2018-11-02T22:27:44.919Z,102446.75
2018-11-02T22:30:15.507Z,102442.81
2018-11-02T22:32:44.816Z,102439.44
2018-11-02T22:35:14.631Z,102442.79
2018-11-02T22:37:44.059Z,102439.55
2018-11-02T22:40:14.040Z,102437.05
2018-11-02T22:42:44.091Z,102440.98
2018-11-02T22:45:14.441Z,102442.59
2018-11-02T22:47:48.916Z,102446.44
2018-11-02T22:50:17.983Z,102447.14
2018-11-02T22:52:46.980Z,102448.07
2018-11-02T22:55:16.118Z,102449.45
2018-11-02T22:57:45.198Z,102454.25
2018-11-02T23:00:17.637Z,102442.78
2018-11-02T23:02:47.623Z,102458.95
2018-11-02T23:05:16.648Z,102453.04
2018-11-02T23:07:45.994Z,102448.52
2018-11-02T23:10:14.981Z,102441.48
2018-11-02T23:12:44.230Z,102441.86
2018-11-02T23:15:13.636Z,102436.13
2018-11-02T23:17:42.702Z,102439.83
2018-11-02T23:20:13.542Z,102439.89
2018-11-02T23:22:42.670Z,102432.02
2018-11-02T23:25:12.448Z,102431.36
2018-11-02T23:27:42.745Z,102421.59
2018-11-02T23:30:12.104Z,102436.83
2018-11-02T23:32:41.285Z,102433.03
2018-11-02T23:35:10.491Z,102413.30
2018-11-02T23:37:39.483Z,102413.30
2018-11-02T23:40:09.381Z,102412.45
2018-11-02T23:42:38.435Z,102416.31
2018-11-02T23:45:08.230Z,102420.10
2018-11-02T23:47:37.568Z,102427.83
2018-11-02T23:50:08.913Z,102435.59
2018-11-02T23:52:38.478Z,102429.47
2018-11-02T23:55:07.867Z,102434.01
2018-11-02T23:57:36.870Z,102426.45
